KCVB

Castroville Municipal Airport

Castroville, Texas, USA
METAR KCVB 190315Z AUTO 00000KT 10SM OVC032 07/M05 A3040 RMK AO2 T00651053
Observed Flight Rules
Jan-19 @ 03:15 UTC (32 minutes ago) Visual Flight Rules
Wind Visibility Clouds
Calm 10 miles
  • Overcast at 3,200' AGL
Temperatures Readings
Current 7°C / 45°F
Dewpoint -5°C / 23°F
Humidity 42%
Altimeter 30.4" Hg
Pressure 1029 hPa
Elevation 235
METAR KCVB 190315Z AUTO 00000KT 10SM OVC032 07/M05 A3040 RMK AO2 T00651053
Observed Flight Rules
Jan-19 @ 03:15 UTC
(32 minutes ago)
VFR
Wind Visibility
Calm 10 miles
Clouds
  • Overcast at 3,200' AGL
Temperature Dewpoint
7°C / 45°F -5°C / 23°F
Humidity Altimeter Pressure
42% 30.4" Hg 1029 hPa